createdAt,value
2018-11-27T00:01:27.168Z,2.67
2018-11-27T00:06:45.818Z,2.68
2018-11-27T00:12:04.449Z,2.59
2018-11-27T00:17:22.986Z,2.60
2018-11-27T00:22:41.642Z,2.60
2018-11-27T00:28:00.141Z,2.63
2018-11-27T00:33:18.633Z,2.33
2018-11-27T00:38:37.200Z,2.24
2018-11-27T00:43:55.700Z,2.39
2018-11-27T00:49:14.303Z,2.44
2018-11-27T00:54:32.818Z,2.11
2018-11-27T00:59:51.418Z,2.01
2018-11-27T01:05:13.788Z,2.18
2018-11-27T01:10:32.350Z,2.14
2018-11-27T01:15:51.150Z,2.22
2018-11-27T01:21:09.732Z,2.23
2018-11-27T01:26:28.377Z,2.05
2018-11-27T01:31:46.952Z,1.94
2018-11-27T01:37:05.895Z,2.04
2018-11-27T01:42:24.470Z,1.90
2018-11-27T01:47:43.054Z,1.73
2018-11-27T01:53:01.650Z,1.90
2018-11-27T01:58:20.177Z,1.74
2018-11-27T02:03:38.796Z,1.64
2018-11-27T02:08:57.361Z,1.77
2018-11-27T02:14:16.649Z,1.82
2018-11-27T02:19:35.354Z,1.60
2018-11-27T02:24:53.993Z,1.69
2018-11-27T02:30:14.201Z,1.66
2018-11-27T02:35:32.773Z,1.66
2018-11-27T02:40:51.261Z,1.72
2018-11-27T02:46:09.770Z,1.62
2018-11-27T02:51:28.293Z,1.61
2018-11-27T02:56:46.784Z,1.69
2018-11-27T03:02:05.360Z,1.72
2018-11-27T03:07:23.972Z,1.69
2018-11-27T03:12:42.541Z,1.74
2018-11-27T03:18:01.120Z,1.71
2018-11-27T03:23:19.616Z,1.74
2018-11-27T03:28:38.140Z,1.88
2018-11-27T03:33:56.770Z,1.92
2018-11-27T03:39:16.247Z,1.85
2018-11-27T03:44:34.932Z,1.67
2018-11-27T03:49:53.517Z,1.74
2018-11-27T03:55:12.850Z,1.70
2018-11-27T04:00:31.780Z,1.67
2018-11-27T04:05:50.435Z,1.66
2018-11-27T04:11:09.013Z,1.63
2018-11-27T04:16:27.590Z,1.61
2018-11-27T04:21:46.107Z,1.63
2018-11-27T04:27:04.904Z,1.51
2018-11-27T04:32:23.485Z,1.46
2018-11-27T04:37:42.075Z,1.59
2018-11-27T04:43:00.629Z,1.49
2018-11-27T04:48:19.231Z,1.24
2018-11-27T04:53:37.874Z,1.50
2018-11-27T04:58:56.414Z,1.57
2018-11-27T05:04:14.928Z,1.56
2018-11-27T05:09:33.469Z,1.73
2018-11-27T05:14:52.022Z,1.79
2018-11-27T05:20:11.733Z,1.87
2018-11-27T05:25:30.293Z,1.88
2018-11-27T05:30:48.926Z,1.86
2018-11-27T05:36:07.478Z,1.84
2018-11-27T05:41:26.009Z,1.81
2018-11-27T05:46:44.498Z,1.76
2018-11-27T05:52:03.060Z,1.85
2018-11-27T05:57:21.621Z,1.86
2018-11-27T06:02:40.390Z,1.62
2018-11-27T06:07:58.967Z,1.75
2018-11-27T06:13:17.558Z,1.72
2018-11-27T06:18:36.126Z,1.66
2018-11-27T06:23:54.700Z,1.71
2018-11-27T06:29:13.245Z,1.87
2018-11-27T06:34:31.998Z,1.89
2018-11-27T06:39:50.637Z,2.00
2018-11-27T06:45:11.541Z,2.29
2018-11-27T06:50:30.081Z,2.33
2018-11-27T06:55:48.691Z,2.33
2018-11-27T07:01:07.353Z,2.38
2018-11-27T07:06:25.877Z,2.28
2018-11-27T07:11:44.384Z,2.32
2018-11-27T07:17:02.951Z,2.08
2018-11-27T07:22:21.615Z,2.15
2018-11-27T07:27:40.470Z,2.11
2018-11-27T07:32:59.051Z,2.30
2018-11-27T07:38:17.590Z,2.31
2018-11-27T07:43:36.122Z,2.29
2018-11-27T07:48:54.653Z,2.29
2018-11-27T07:54:13.203Z,2.44
2018-11-27T07:59:32.073Z,2.35
2018-11-27T08:04:50.663Z,2.15
2018-11-27T08:10:13.613Z,1.96
2018-11-27T08:20:56.242Z,2.06
2018-11-27T08:26:14.776Z,2.18
2018-11-27T08:31:33.918Z,2.31
2018-11-27T08:36:52.453Z,2.36
2018-11-27T08:42:11.029Z,2.32
2018-11-27T08:47:29.567Z,2.61
2018-11-27T08:52:53.321Z,2.50
2018-11-27T08:58:18.114Z,2.76
2018-11-27T09:03:36.693Z,2.72
2018-11-27T09:08:55.257Z,2.76
2018-11-27T09:14:14.130Z,2.75
2018-11-27T09:19:32.399Z,2.77
2018-11-27T09:24:50.906Z,2.63
2018-11-27T09:30:14.788Z,2.74
2018-11-27T09:35:33.397Z,2.99
2018-11-27T09:40:51.974Z,3.17
2018-11-27T09:46:10.496Z,3.27
2018-11-27T09:51:29.033Z,3.33
2018-11-27T09:56:47.744Z,3.37
2018-11-27T10:02:06.343Z,3.31
2018-11-27T10:07:24.911Z,3.40
2018-11-27T10:12:43.842Z,3.62
2018-11-27T10:18:02.917Z,3.66
2018-11-27T10:23:21.553Z,3.54
2018-11-27T10:28:40.103Z,3.64
2018-11-27T10:33:58.617Z,3.74
2018-11-27T10:39:17.187Z,3.85
2018-11-27T10:44:36.304Z,3.84
2018-11-27T10:49:54.938Z,3.91
2018-11-27T10:55:15.217Z,3.92
2018-11-27T11:00:39.273Z,3.95
2018-11-27T11:05:57.944Z,3.98
2018-11-27T11:11:16.429Z,4.04
2018-11-27T11:16:34.921Z,4.12
2018-11-27T11:21:53.425Z,4.21
2018-11-27T11:27:11.936Z,4.30
2018-11-27T11:32:30.546Z,4.37
2018-11-27T11:37:49.553Z,4.33
2018-11-27T11:43:08.289Z,4.40
2018-11-27T11:48:26.903Z,4.42
2018-11-27T11:53:45.553Z,4.46
2018-11-27T11:59:04.129Z,4.40
2018-11-27T12:04:22.683Z,4.39
2018-11-27T12:09:41.196Z,4.39
2018-11-27T12:14:59.813Z,4.36
2018-11-27T12:20:19.691Z,4.31
2018-11-27T12:25:38.777Z,4.42
2018-11-27T12:30:57.331Z,4.33
2018-11-27T12:36:15.823Z,4.27
2018-11-27T12:41:34.400Z,4.43
2018-11-27T12:46:52.922Z,4.55
2018-11-27T12:52:11.459Z,4.66
2018-11-27T12:57:30.023Z,4.92
2018-11-27T13:02:49.047Z,4.83
2018-11-27T13:08:23.702Z,4.71
2018-11-27T13:13:42.481Z,4.48
2018-11-27T13:19:01.014Z,4.33
2018-11-27T13:24:19.611Z,4.27
2018-11-27T13:29:38.285Z,4.48
2018-11-27T13:34:56.836Z,4.45
2018-11-27T13:40:15.480Z,4.47
2018-11-27T13:45:34.049Z,4.51
2018-11-27T13:50:52.627Z,4.45
2018-11-27T13:56:11.219Z,4.52
2018-11-27T14:01:29.733Z,4.48
2018-11-27T14:06:48.249Z,4.25
2018-11-27T14:12:07.029Z,4.21
2018-11-27T14:17:25.679Z,4.19
2018-11-27T14:22:46.036Z,4.12
2018-11-27T14:28:04.605Z,4.05
2018-11-27T14:33:23.078Z,4.11
2018-11-27T14:38:42.664Z,4.16
2018-11-27T14:44:01.401Z,4.15
2018-11-27T14:49:20.155Z,4.10
2018-11-27T14:54:40.473Z,4.14
2018-11-27T14:59:59.146Z,4.11
2018-11-27T15:05:26.112Z,4.26
2018-11-27T15:10:44.777Z,4.12
2018-11-27T15:16:03.487Z,4.14
2018-11-27T15:21:22.400Z,4.10
2018-11-27T15:26:51.666Z,4.02
2018-11-27T15:32:10.330Z,3.99
2018-11-27T15:37:28.906Z,3.93
2018-11-27T15:42:47.469Z,3.92
2018-11-27T15:48:08.708Z,3.95
2018-11-27T15:53:27.394Z,3.88
2018-11-27T16:04:33.093Z,3.87
2018-11-27T16:09:51.794Z,3.75
2018-11-27T16:15:13.704Z,3.83
2018-11-27T16:20:32.659Z,3.84
2018-11-27T16:25:51.834Z,3.97
2018-11-27T16:31:10.607Z,3.87
2018-11-27T16:36:29.252Z,3.90
2018-11-27T16:41:48.002Z,3.89
2018-11-27T16:47:07.387Z,3.88
2018-11-27T16:52:26.389Z,3.67
2018-11-27T16:57:45.378Z,3.55
2018-11-27T17:03:05.392Z,3.45
2018-11-27T17:08:24.871Z,3.03
2018-11-27T17:13:43.729Z,2.89
2018-11-27T17:19:02.364Z,2.70
2018-11-27T17:24:21.131Z,2.51
2018-11-27T17:29:40.097Z,2.24
2018-11-27T17:34:58.936Z,1.99
2018-11-27T17:40:17.726Z,1.75
2018-11-27T17:45:36.721Z,1.52
2018-11-27T17:50:55.564Z,1.63
2018-11-27T17:56:14.445Z,1.23
2018-11-27T18:01:33.127Z,1.34
2018-11-27T18:06:51.824Z,1.34
2018-11-27T18:12:10.434Z,1.31
2018-11-27T18:17:29.580Z,1.11
2018-11-27T18:22:48.381Z,1.18
2018-11-27T18:28:06.993Z,1.20
2018-11-27T18:33:38.009Z,1.16
2018-11-27T18:38:56.558Z,1.04
2018-11-27T18:44:15.249Z,0.97
2018-11-27T18:49:33.747Z,0.98
2018-11-27T18:54:52.404Z,0.94
2018-11-27T19:00:29.079Z,0.77
2018-11-27T19:05:47.850Z,0.53
2018-11-27T19:11:09.077Z,0.42
2018-11-27T19:16:27.797Z,0.35
2018-11-27T19:21:46.626Z,0.29
2018-11-27T19:27:05.402Z,0.27
2018-11-27T19:32:24.245Z,0.29
2018-11-27T19:37:42.887Z,0.31
2018-11-27T19:43:01.404Z,0.24
2018-11-27T19:48:20.000Z,0.22
2018-11-27T19:53:39.223Z,0.09
2018-11-27T19:58:57.128Z,0.06
2018-11-27T20:04:15.689Z,-0.01
2018-11-27T20:09:34.275Z,-0.19
2018-11-27T20:14:52.882Z,0.05
2018-11-27T20:20:13.030Z,0.46
2018-11-27T20:25:31.694Z,0.71
2018-11-27T20:30:50.872Z,0.78
2018-11-27T20:36:10.055Z,0.91
2018-11-27T20:41:28.658Z,0.98
2018-11-27T20:46:48.020Z,1.01
2018-11-27T20:52:06.639Z,1.10
2018-11-27T20:57:25.274Z,1.12
2018-11-27T21:02:44.561Z,1.05
2018-11-27T21:08:02.597Z,1.02
2018-11-27T21:13:21.850Z,0.98
2018-11-27T21:18:40.359Z,0.91
2018-11-27T21:23:58.932Z,1.01
2018-11-27T21:29:17.528Z,1.01
2018-11-27T21:34:36.658Z,1.03
2018-11-27T21:39:55.626Z,1.04
2018-11-27T21:45:15.692Z,0.99
2018-11-27T21:50:39.337Z,0.96
2018-11-27T21:55:59.745Z,0.91
2018-11-27T22:01:18.232Z,0.92
2018-11-27T22:06:37.049Z,0.88
2018-11-27T22:11:55.601Z,0.90
2018-11-27T22:17:14.182Z,0.86
2018-11-27T22:22:32.714Z,0.76
2018-11-27T22:27:57.806Z,0.69
2018-11-27T22:33:16.429Z,0.68
2018-11-27T22:38:35.053Z,0.72
2018-11-27T22:43:53.660Z,0.60
2018-11-27T22:49:12.234Z,0.62
2018-11-27T22:54:31.455Z,0.67
2018-11-27T22:59:50.010Z,0.66
2018-11-27T23:05:09.230Z,0.78
2018-11-27T23:10:29.261Z,0.74
2018-11-27T23:15:48.447Z,0.75
2018-11-27T23:21:07.011Z,0.65
2018-11-27T23:26:25.532Z,0.75
2018-11-27T23:31:44.923Z,0.70
2018-11-27T23:37:04.079Z,0.74
2018-11-27T23:42:22.606Z,0.67
2018-11-27T23:47:41.103Z,0.67
2018-11-27T23:52:59.636Z,0.65
2018-11-27T23:58:18.337Z,0.74
